Terminal Aerodrome Forecast
Issued by NWS

Current Version | Previous Version | Text Only | Print | Product List | Glossary On
Versions: 1 2 3 4 5 6 7 8 9 10 11 12
550
FTUS44 KLZK 071727
TAFHOT
TAF
KHOT 071727Z 0718/0818 27012G20KT P6SM BKN250
     FM080300 30010KT P6SM SCT250
     FM081300 30012G20KT P6SM OVC040=

USA.gov is the U.S. government's official web portal to all federal, state and local government web resources and services.